createdAt,value
2019-02-15T05:23:38.195Z,10.90
2019-02-15T05:26:04.363Z,11.00
2019-02-15T05:28:30.524Z,11.05
2019-02-15T05:30:56.722Z,12.00
2019-02-15T05:33:22.965Z,9.70
2019-02-15T05:35:49.178Z,10.48
2019-02-15T05:38:15.489Z,10.08
2019-02-15T05:40:41.634Z,10.60
2019-02-15T05:43:07.874Z,13.93
2019-02-15T05:45:34.050Z,11.65
2019-02-15T05:48:00.205Z,11.75
2019-02-15T05:50:26.358Z,12.82
2019-02-15T05:52:52.619Z,12.73
2019-02-15T05:55:18.774Z,13.50
2019-02-15T05:57:44.919Z,14.07
2019-02-15T06:00:11.097Z,13.55
2019-02-15T06:02:37.491Z,13.13
2019-02-15T06:05:03.650Z,12.58
2019-02-15T06:07:29.819Z,12.88
2019-02-15T06:09:55.971Z,13.03
2019-02-15T06:12:22.125Z,12.28
2019-02-15T06:14:48.302Z,12.07
2019-02-15T06:17:14.456Z,12.10
2019-02-15T06:19:40.619Z,11.10
2019-02-15T06:22:06.796Z,10.48
2019-02-15T06:24:32.950Z,9.85
2019-02-15T06:26:59.100Z,9.83
2019-02-15T06:29:25.275Z,10.15
2019-02-15T06:31:51.435Z,10.23
2019-02-15T06:34:17.669Z,10.38
2019-02-15T06:36:43.844Z,10.60
2019-02-15T06:39:10.002Z,10.75
2019-02-15T06:41:36.151Z,12.35
2019-02-15T06:44:02.412Z,10.70
2019-02-15T06:46:28.565Z,11.53
2019-02-15T06:48:54.719Z,10.00
2019-02-15T06:51:20.911Z,9.50
2019-02-15T06:53:47.087Z,9.38
2019-02-15T06:56:13.244Z,8.88
2019-02-15T06:58:45.421Z,9.45
2019-02-15T07:01:07.303Z,8.75
2019-02-15T07:03:33.542Z,8.95
2019-02-15T07:05:59.712Z,8.78
2019-02-15T07:08:25.883Z,7.90
2019-02-15T07:10:52.043Z,7.72
2019-02-15T07:13:18.281Z,8.55
2019-02-15T07:15:44.435Z,10.15
2019-02-15T07:18:10.592Z,8.20
2019-02-15T07:20:36.763Z,8.35
2019-02-15T07:23:02.920Z,8.58
2019-02-15T07:25:29.069Z,7.45
2019-02-15T07:27:55.262Z,7.70
2019-02-15T07:30:21.421Z,7.90
2019-02-15T07:32:47.577Z,7.17
2019-02-15T07:35:13.769Z,7.58
2019-02-15T07:37:39.931Z,7.30
2019-02-15T07:40:06.064Z,7.15
2019-02-15T07:42:32.319Z,6.95
2019-02-15T07:44:58.478Z,8.23
2019-02-15T07:47:24.633Z,7.50
2019-02-15T07:49:50.806Z,7.65
2019-02-15T07:52:16.957Z,7.72
2019-02-15T07:54:43.122Z,7.08
2019-02-15T07:57:09.303Z,7.22
2019-02-15T07:59:35.453Z,7.05
2019-02-15T08:02:02.282Z,7.25
2019-02-15T08:04:28.584Z,7.17
2019-02-15T08:06:54.733Z,7.40
2019-02-15T08:09:20.883Z,6.75
2019-02-15T08:11:47.113Z,6.78
2019-02-15T08:14:15.415Z,7.85
2019-02-15T08:16:41.164Z,7.58
2019-02-15T08:19:07.333Z,6.47
2019-02-15T08:21:33.483Z,6.92
2019-02-15T08:23:59.632Z,7.37
2019-02-15T08:26:25.808Z,7.03
2019-02-15T08:28:51.960Z,7.20
2019-02-15T08:31:18.119Z,7.37
2019-02-15T08:33:44.370Z,6.55
2019-02-15T08:36:10.521Z,6.45
2019-02-15T08:38:36.668Z,6.78
2019-02-15T08:41:02.851Z,6.92
2019-02-15T08:43:29.051Z,7.20
2019-02-15T08:46:01.571Z,6.60
2019-02-15T08:48:23.104Z,6.67
2019-02-15T08:50:49.253Z,6.28
2019-02-15T08:53:15.510Z,5.85
2019-02-15T08:55:41.731Z,7.20
2019-02-15T08:58:07.886Z,6.28
2019-02-15T09:00:34.074Z,6.28
2019-02-15T09:03:00.349Z,6.70
2019-02-15T09:05:26.504Z,6.78
2019-02-15T09:07:52.658Z,7.08
2019-02-15T09:10:18.827Z,6.15
2019-02-15T09:12:45.029Z,7.00
2019-02-15T09:15:11.218Z,6.20
2019-02-15T09:17:37.361Z,6.33
2019-02-15T09:20:03.524Z,6.47
2019-02-15T09:22:29.770Z,6.05
2019-02-15T09:24:55.925Z,6.20
2019-02-15T09:27:22.073Z,5.55
2019-02-15T09:29:48.248Z,5.95
2019-02-15T09:32:14.457Z,6.22
2019-02-15T09:34:40.622Z,5.78
2019-02-15T09:37:06.809Z,5.85
2019-02-15T09:39:32.971Z,6.10
2019-02-15T09:41:59.160Z,5.72
2019-02-15T09:44:25.311Z,5.40
2019-02-15T09:46:51.457Z,5.78
2019-02-15T09:49:17.629Z,5.67
2019-02-15T09:51:43.777Z,5.92
2019-02-15T09:54:09.931Z,5.90
2019-02-15T09:56:36.182Z,5.60
2019-02-15T09:59:02.345Z,5.62
2019-02-15T10:01:28.505Z,5.58
2019-02-15T10:03:55.319Z,5.30
2019-02-15T10:06:21.468Z,5.42
2019-02-15T10:08:47.628Z,4.62
2019-02-15T10:11:13.800Z,5.28
2019-02-15T10:13:40.044Z,5.80
2019-02-15T10:16:06.187Z,5.50
2019-02-15T10:18:32.369Z,5.37
2019-02-15T10:20:58.518Z,5.45
2019-02-15T10:23:24.763Z,4.83
2019-02-15T10:25:50.977Z,5.42
2019-02-15T10:28:17.128Z,5.08
2019-02-15T10:30:43.277Z,5.33
2019-02-15T10:33:09.504Z,5.03
2019-02-15T10:35:35.655Z,4.60
2019-02-15T10:38:01.816Z,5.20
2019-02-15T10:40:27.981Z,4.65
2019-02-15T10:42:54.184Z,5.10
2019-02-15T10:45:20.346Z,5.25
2019-02-15T10:47:46.516Z,5.12
2019-02-15T10:50:12.661Z,5.80
2019-02-15T10:52:38.926Z,5.67
2019-02-15T10:55:05.135Z,4.92
2019-02-15T10:57:31.291Z,5.15
2019-02-15T10:59:57.461Z,4.75
2019-02-15T11:02:23.707Z,5.42
2019-02-15T11:04:49.959Z,5.17
2019-02-15T11:07:16.169Z,5.20
2019-02-15T11:09:42.293Z,5.08
2019-02-15T11:12:08.524Z,5.12
2019-02-15T11:14:34.708Z,4.70
2019-02-15T11:17:00.843Z,4.78
2019-02-15T11:19:27.013Z,5.05
2019-02-15T11:21:53.278Z,5.35
2019-02-15T11:24:19.429Z,4.80
2019-02-15T11:26:45.584Z,4.95
2019-02-15T11:29:11.774Z,5.35
2019-02-15T11:31:37.926Z,5.45
2019-02-15T11:34:04.080Z,5.40
2019-02-15T11:36:30.259Z,5.55
2019-02-15T11:38:56.409Z,4.75
2019-02-15T11:41:22.565Z,5.08
2019-02-15T11:43:48.734Z,5.05
2019-02-15T11:46:14.889Z,4.53
2019-02-15T11:48:41.038Z,4.65
2019-02-15T11:51:07.205Z,4.45
2019-02-15T11:53:33.395Z,4.58
2019-02-15T11:55:59.545Z,4.55
2019-02-15T11:58:25.721Z,5.10
2019-02-15T12:00:51.868Z,4.62
2019-02-15T12:03:18.108Z,4.70
2019-02-15T12:05:44.282Z,4.72
2019-02-15T12:08:10.432Z,4.37
2019-02-15T12:10:36.593Z,4.80
2019-02-15T12:13:02.852Z,4.33
2019-02-15T12:15:29.000Z,4.33
2019-02-15T12:17:55.162Z,4.28
2019-02-15T12:20:21.312Z,4.67
2019-02-15T12:22:47.538Z,5.35
2019-02-15T12:25:13.734Z,4.65
2019-02-15T12:27:39.878Z,4.55
2019-02-15T12:30:06.024Z,4.33
2019-02-15T12:32:32.279Z,4.12
2019-02-15T12:34:58.428Z,4.28
2019-02-15T12:37:24.579Z,5.15
2019-02-15T12:39:50.754Z,5.30
2019-02-15T12:42:16.983Z,4.75
2019-02-15T12:44:43.111Z,4.53
2019-02-15T12:47:15.102Z,4.20
2019-02-15T12:49:37.178Z,4.35
2019-02-15T12:52:03.418Z,4.83
2019-02-15T12:54:29.580Z,4.45
2019-02-15T12:56:55.729Z,4.58
2019-02-15T12:59:21.915Z,4.10
2019-02-15T13:01:48.148Z,4.60
2019-02-15T13:04:14.281Z,4.00
2019-02-15T13:06:40.456Z,4.00
2019-02-15T13:09:06.606Z,4.40
2019-02-15T13:11:32.846Z,4.67
2019-02-15T13:13:59.024Z,4.53
2019-02-15T13:16:25.182Z,4.50
2019-02-15T13:18:51.345Z,4.22
2019-02-15T13:21:17.534Z,4.90
2019-02-15T13:23:43.684Z,4.30
2019-02-15T13:26:09.879Z,4.53
2019-02-15T13:28:36.110Z,3.90
2019-02-15T13:31:02.272Z,4.87
2019-02-15T13:33:28.429Z,4.95
2019-02-15T13:35:54.640Z,4.42
2019-02-15T13:38:20.798Z,3.87
2019-02-15T13:40:46.960Z,4.35
2019-02-15T13:43:13.144Z,4.33
2019-02-15T13:45:39.341Z,4.35
2019-02-15T13:48:05.498Z,4.33
2019-02-15T13:50:31.644Z,4.40
2019-02-15T13:52:57.925Z,4.20
2019-02-15T13:55:24.081Z,4.17
2019-02-15T13:57:50.232Z,4.50
2019-02-15T14:00:16.408Z,4.08
2019-02-15T14:02:42.642Z,4.50
2019-02-15T14:05:09.659Z,3.80
2019-02-15T14:07:35.966Z,3.95
2019-02-15T14:10:02.123Z,4.25
2019-02-15T14:12:28.372Z,4.03
2019-02-15T14:14:54.557Z,4.33
2019-02-15T14:17:20.700Z,4.30
2019-02-15T14:19:46.860Z,4.35
2019-02-15T14:22:13.201Z,4.45
2019-02-15T14:24:39.359Z,3.75
2019-02-15T14:27:05.520Z,4.20
2019-02-15T14:29:31.687Z,4.58
2019-02-15T14:31:57.897Z,4.72
2019-02-15T14:34:24.044Z,4.58
2019-02-15T14:36:50.224Z,4.08
2019-02-15T14:39:16.396Z,4.40
2019-02-15T14:41:42.616Z,3.85
2019-02-15T14:44:08.813Z,3.90
2019-02-15T14:46:34.965Z,4.40
2019-02-15T14:49:01.130Z,4.37
2019-02-15T14:51:27.363Z,4.15
2019-02-15T14:53:53.513Z,4.17
2019-02-15T14:56:19.673Z,4.72
2019-02-15T14:58:45.844Z,4.17
2019-02-15T15:01:12.036Z,3.95
2019-02-15T15:03:38.172Z,4.50
2019-02-15T15:06:04.368Z,3.83
2019-02-15T15:08:30.853Z,4.20
2019-02-15T15:10:57.219Z,4.37
2019-02-15T15:13:23.374Z,4.35
2019-02-15T15:15:49.523Z,3.95
2019-02-15T15:18:15.687Z,4.10
2019-02-15T15:20:41.863Z,4.10
2019-02-15T15:23:08.103Z,4.53
2019-02-15T15:25:34.263Z,3.70
2019-02-15T15:28:00.448Z,4.05
2019-02-15T15:30:26.611Z,4.25
2019-02-15T15:32:52.813Z,3.85
2019-02-15T15:35:18.988Z,3.58
2019-02-15T15:37:45.144Z,4.25
2019-02-15T15:40:11.294Z,4.47
2019-02-15T15:42:37.562Z,4.10
2019-02-15T15:45:03.714Z,4.05
2019-02-15T15:47:29.872Z,4.35
2019-02-15T15:49:56.042Z,4.40
2019-02-15T15:52:22.239Z,4.37
2019-02-15T15:54:48.416Z,4.50
2019-02-15T15:57:14.582Z,4.05
2019-02-15T15:59:40.722Z,3.92
2019-02-15T16:02:07.030Z,4.78
2019-02-15T16:04:33.192Z,4.83
2019-02-15T16:06:59.359Z,3.75
2019-02-15T16:09:25.524Z,4.28
2019-02-15T16:11:51.770Z,4.55
2019-02-15T16:14:17.932Z,4.72
2019-02-15T16:16:44.089Z,4.70
2019-02-15T16:19:10.240Z,5.40
2019-02-15T16:21:36.615Z,5.10
2019-02-15T16:24:12.121Z,4.35
2019-02-15T16:26:30.654Z,5.05
2019-02-15T16:28:56.826Z,5.33
2019-02-15T16:31:23.044Z,6.00
2019-02-15T16:33:49.337Z,5.28
2019-02-15T16:36:15.538Z,5.87
2019-02-15T16:38:41.885Z,5.35
2019-02-15T16:41:08.049Z,5.62
2019-02-15T16:43:34.225Z,6.20
2019-02-15T16:46:00.373Z,6.37
2019-02-15T16:48:26.525Z,6.37
2019-02-15T16:50:52.709Z,6.40
2019-02-15T16:53:18.858Z,5.85
2019-02-15T16:55:45.009Z,5.80
2019-02-15T16:58:11.186Z,5.65
2019-02-15T17:00:37.341Z,6.17
2019-02-15T17:03:03.504Z,6.35
2019-02-15T17:05:29.683Z,7.37
2019-02-15T17:07:55.832Z,6.90
2019-02-15T17:10:21.987Z,6.62
2019-02-15T17:12:48.247Z,5.83
2019-02-15T17:15:14.410Z,6.90
2019-02-15T17:17:40.584Z,6.30
2019-02-15T17:20:06.760Z,7.28
2019-02-15T17:22:32.924Z,6.72
2019-02-15T17:24:59.080Z,6.47
2019-02-15T17:27:25.254Z,6.20
2019-02-15T17:29:51.419Z,6.35
2019-02-15T17:32:17.646Z,6.30
2019-02-15T17:34:43.872Z,6.60
2019-02-15T17:37:10.017Z,6.17
2019-02-15T17:39:36.163Z,5.37
2019-02-15T17:42:02.382Z,21.20
2019-02-15T17:44:28.533Z,8.70
2019-02-15T17:46:54.683Z,7.78
2019-02-15T17:49:20.855Z,6.65
2019-02-15T17:51:47.078Z,7.58
2019-02-15T17:54:13.239Z,8.18
2019-02-15T17:56:39.422Z,7.17
2019-02-15T17:59:05.595Z,7.60
2019-02-15T18:01:31.783Z,7.90
2019-02-15T18:03:58.151Z,9.33
2019-02-15T18:06:24.299Z,9.88
2019-02-15T18:08:50.673Z,9.45
2019-02-15T18:11:16.930Z,9.38
2019-02-15T18:13:47.419Z,9.30
2019-02-15T18:16:13.723Z,10.60
2019-02-15T18:18:40.059Z,9.48
2019-02-15T18:21:06.969Z,9.68
2019-02-15T18:23:33.205Z,9.88
2019-02-15T18:25:59.402Z,8.68
2019-02-15T18:28:25.554Z,9.55
2019-02-15T18:30:51.782Z,9.75
2019-02-15T18:33:18.025Z,9.95
2019-02-15T18:35:44.166Z,9.33
2019-02-15T18:38:10.586Z,9.10
2019-02-15T18:40:36.816Z,9.98
2019-02-15T18:43:03.215Z,9.00
2019-02-15T18:45:29.363Z,9.83
2019-02-15T18:47:55.551Z,9.83
2019-02-15T18:50:21.720Z,8.98
2019-02-15T18:52:47.895Z,9.35
2019-02-15T18:55:14.064Z,9.43
2019-02-15T18:57:40.217Z,9.50
2019-02-15T19:00:06.375Z,10.30
2019-02-15T19:02:32.666Z,10.90
2019-02-15T19:04:58.835Z,16.20
2019-02-15T19:07:24.981Z,15.38
2019-02-15T19:09:51.159Z,15.30
2019-02-15T19:12:17.345Z,16.95
2019-02-15T19:14:43.501Z,18.77
2019-02-15T19:17:09.673Z,15.48
2019-02-15T19:19:35.830Z,19.12
2019-02-15T19:22:02.059Z,20.85
2019-02-15T19:24:28.247Z,17.05
2019-02-15T19:26:54.406Z,18.90
2019-02-15T19:29:20.581Z,14.58
2019-02-15T19:31:46.808Z,15.68
2019-02-15T19:34:12.935Z,13.48
2019-02-15T19:36:39.113Z,13.68
2019-02-15T19:39:05.260Z,13.55
2019-02-15T19:41:31.489Z,14.40
2019-02-15T19:43:57.663Z,14.50
2019-02-15T19:46:23.818Z,12.80
2019-02-15T19:48:49.971Z,14.68
2019-02-15T19:51:16.226Z,13.83
2019-02-15T19:53:42.378Z,13.38
2019-02-15T19:56:08.531Z,13.38
2019-02-15T19:58:34.713Z,14.05
2019-02-15T20:01:00.909Z,12.80
2019-02-15T20:03:27.070Z,13.05
2019-02-15T20:05:53.458Z,14.10
2019-02-15T20:08:21.935Z,16.25
2019-02-15T20:10:48.174Z,14.28
2019-02-15T20:13:14.371Z,12.73
2019-02-15T20:15:40.531Z,13.75
2019-02-15T20:18:06.814Z,13.65
2019-02-15T20:20:33.037Z,14.10
2019-02-15T20:22:59.211Z,13.50
2019-02-15T20:25:25.374Z,14.47
2019-02-15T20:27:51.708Z,14.23
2019-02-15T20:30:17.989Z,14.23
2019-02-15T20:32:44.144Z,13.58
2019-02-15T20:35:10.323Z,15.83
2019-02-15T20:37:36.619Z,14.95
2019-02-15T20:40:02.918Z,14.53
2019-02-15T20:42:29.246Z,14.28
2019-02-15T20:44:55.397Z,14.78
2019-02-15T20:47:22.314Z,14.95
2019-02-15T20:49:57.525Z,15.85
2019-02-15T20:52:16.664Z,14.87
2019-02-15T20:54:42.850Z,17.40
2019-02-15T20:57:09.005Z,15.65
2019-02-15T20:59:35.369Z,16.87
2019-02-15T21:02:01.583Z,15.38
2019-02-15T21:04:27.795Z,19.00
2019-02-15T21:06:53.976Z,15.70
2019-02-15T21:09:20.209Z,14.58
2019-02-15T21:11:46.376Z,16.02
2019-02-15T21:14:12.639Z,15.03
2019-02-15T21:16:38.879Z,14.50
2019-02-15T21:19:05.182Z,13.80
2019-02-15T21:21:31.389Z,13.43
2019-02-15T21:23:57.721Z,14.33
2019-02-15T21:26:24.041Z,14.83
2019-02-15T21:28:50.282Z,14.58
2019-02-15T21:31:16.541Z,17.00
2019-02-15T21:33:42.691Z,15.63
2019-02-15T21:36:09.997Z,15.38
2019-02-15T21:38:36.168Z,15.60
2019-02-15T21:41:02.577Z,14.53
2019-02-15T21:43:28.740Z,14.80
2019-02-15T21:45:54.940Z,14.43
2019-02-15T21:48:21.239Z,14.10
2019-02-15T21:50:47.466Z,15.78
2019-02-15T21:53:13.933Z,16.07
2019-02-15T21:55:40.163Z,15.53
2019-02-15T21:58:06.417Z,16.45
2019-02-15T22:00:32.721Z,17.37
2019-02-15T22:02:58.877Z,15.75
2019-02-15T22:05:25.042Z,16.25
2019-02-15T22:07:51.220Z,17.17
2019-02-15T22:10:17.409Z,17.35
2019-02-15T22:12:43.563Z,17.45
2019-02-15T22:15:09.739Z,17.23
2019-02-15T22:17:35.899Z,16.40
2019-02-15T22:20:02.103Z,17.20
2019-02-15T22:22:28.491Z,15.93
2019-02-15T22:24:54.647Z,16.60
2019-02-15T22:27:20.799Z,27.20
2019-02-15T22:29:47.026Z,23.60
2019-02-15T22:32:13.135Z,22.22
2019-02-15T22:34:39.290Z,22.62
2019-02-15T22:37:05.660Z,19.23
2019-02-15T22:39:31.803Z,18.87
2019-02-15T22:41:57.982Z,19.17
2019-02-15T22:44:24.176Z,19.50
2019-02-15T22:46:50.328Z,20.10
2019-02-15T22:49:16.474Z,17.73
2019-02-15T22:51:42.721Z,18.30
2019-02-15T22:54:08.872Z,19.35
2019-02-15T22:56:35.031Z,17.73
2019-02-15T22:59:01.217Z,18.50
2019-02-15T23:01:27.402Z,19.40
2019-02-15T23:03:53.555Z,25.20
2019-02-15T23:06:19.737Z,42.50
2019-02-15T23:08:45.901Z,47.35
2019-02-15T23:11:12.118Z,47.27
2019-02-15T23:13:38.290Z,52.93
2019-02-15T23:16:04.583Z,56.65
2019-02-15T23:18:30.735Z,57.48
2019-02-15T23:20:56.968Z,60.73
2019-02-15T23:23:23.123Z,59.42
2019-02-15T23:25:49.289Z,61.02
2019-02-15T23:28:15.474Z,62.73
2019-02-15T23:30:41.650Z,61.40
2019-02-15T23:33:07.804Z,61.70
2019-02-15T23:35:34.006Z,61.63
2019-02-15T23:38:00.158Z,61.88
2019-02-15T23:40:26.356Z,63.63
2019-02-15T23:42:52.540Z,62.03
2019-02-15T23:45:18.710Z,60.98
2019-02-15T23:47:44.871Z,63.68
2019-02-15T23:50:11.096Z,75.25
2019-02-15T23:52:37.263Z,88.67
2019-02-15T23:55:03.424Z,98.42
2019-02-15T23:57:29.611Z,99.07
2019-02-15T23:59:55.782Z,99.42
